Map

Track Data

SID SEASON NUMBER BASIN SUBBASIN NAME ISO_TIME NATURE LAT LON WMO_WIND WMO_PRES WMO_AGENCY TRACK_TYPE DIST2LAND LANDFALL IFLAG USA_AGENCY USA_ATCF_ID USA_LAT USA_LON USA_RECORD USA_STATUS USA_WIND USA_PRES USA_SSHS USA_R34_NE USA_R34_SE USA_R34_SW USA_R34_NW USA_R50_NE USA_R50_SE USA_R50_SW USA_R50_NW USA_R64_NE USA_R64_SE USA_R64_SW USA_R64_NW USA_POCI USA_ROCI USA_RMW USA_EYE TOKYO_LAT TOKYO_LON TOKYO_GRADE TOKYO_WIND TOKYO_PRES TOKYO_R50_DIR TOKYO_R50_LONG TOKYO_R50_SHORT TOKYO_R30_DIR TOKYO_R30_LONG TOKYO_R30_SHORT TOKYO_LAND CMA_LAT CMA_LON CMA_CAT CMA_WIND CMA_PRES HKO_LAT HKO_LON HKO_CAT HKO_WIND HKO_PRES NEWDELHI_LAT NEWDELHI_LON NEWDELHI_GRADE NEWDELHI_WIND NEWDELHI_PRES NEWDELHI_CI NEWDELHI_DP NEWDELHI_POCI REUNION_LAT REUNION_LON REUNION_TYPE REUNION_WIND REUNION_PRES REUNION_TNUM REUNION_CI REUNION_RMW REUNION_R34_NE REUNION_R34_SE REUNION_R34_SW REUNION_R34_NW REUNION_R50_NE REUNION_R50_SE REUNION_R50_SW REUNION_R50_NW REUNION_R64_NE REUNION_R64_SE REUNION_R64_SW REUNION_R64_NW BOM_LAT BOM_LON BOM_TYPE BOM_WIND BOM_PRES BOM_TNUM BOM_CI BOM_RMW BOM_R34_NE BOM_R34_SE BOM_R34_SW BOM_R34_NW BOM_R50_NE BOM_R50_SE BOM_R50_SW BOM_R50_NW BOM_R64_NE BOM_R64_SE BOM_R64_SW BOM_R64_NW BOM_ROCI BOM_POCI BOM_EYE BOM_POS_METHOD BOM_PRES_METHOD NADI_LAT NADI_LON NADI_CAT NADI_WIND NADI_PRES WELLINGTON_LAT WELLINGTON_LON WELLINGTON_WIND WELLINGTON_PRES DS824_LAT DS824_LON DS824_STAGE DS824_WIND DS824_PRES TD9636_LAT TD9636_LON TD9636_STAGE TD9636_WIND TD9636_PRES TD9635_LAT TD9635_LON TD9635_WIND TD9635_PRES TD9635_ROCI NEUMANN_LAT NEUMANN_LON NEUMANN_CLASS NEUMANN_WIND NEUMANN_PRES MLC_LAT MLC_LON MLC_CLASS MLC_WIND MLC_PRES USA_GUST BOM_GUST BOM_GUST_PER REUNION_GUST REUNION_GUST_PER USA_SEAHGT USA_SEARAD_NE USA_SEARAD_SE USA_SEARAD_SW USA_SEARAD_NW STORM_SPEED STORM_DIR
1896046S10062 1896 6 SI MM NOT_NAMED 1896-02-14 18:00:00 NR -10.0000 62.4000 main 1237 1188 __________O___ -1 -10.0000 62.4000 7 9 203
1896046S10062 1896 6 SI MM NOT_NAMED 1896-02-14 21:00:00 NR -10.4001 62.2317 main 1188 1142 __________P___ -1 -10.4001 62.2317 7 9 203
1896046S10062 1896 6 SI MM NOT_NAMED 1896-02-15 00:00:00 NR -10.7801 62.0705 main 1142 1103 __________P___ -1 -10.7801 62.0705 7 8 203
1896046S10062 1896 6 SI MM NOT_NAMED 1896-02-15 03:00:00 NR -11.1201 61.9241 main 1103 1067 __________P___ -1 -11.1201 61.9241 7 7 203
1896046S10062 1896 6 SI MM NOT_NAMED 1896-02-15 06:00:00 NR -11.4000 61.8000 main 1067 1043 __________O___ -1 -11.4000 61.8000 7 5 204
1896046S10062 1896 6 SI MM NOT_NAMED 1896-02-15 09:00:00 NR -11.6074 61.7032 main 1043 1018 __________P___ -1 -11.6074 61.7032 7 4 205
1896046S10062 1896 6 SI MM NOT_NAMED 1896-02-15 12:00:00 NR -11.7599 61.6273 main 1018 1007 __________P___ -1 -11.7599 61.6273 7 3 206
1896046S10062 1896 6 SI MM NOT_NAMED 1896-02-15 15:00:00 NR -11.8825 61.5627 main 1007 993 __________P___ -1 -11.8825 61.5627 7 3 208
1896046S10062 1896 6 SI MM NOT_NAMED 1896-02-15 18:00:00 NR -12.0000 61.5000 main 993 978 __________O___ -1 -12.0000 61.5000 7 3 207
1896046S10062 1896 6 SI MM NOT_NAMED 1896-02-15 21:00:00 NR -12.1541 61.4250 main 968 958 __________P___ -1 -12.1541 61.4250 7 3 205
1896046S10062 1896 6 SI MM NOT_NAMED 1896-02-16 00:00:00 NR -12.3075 61.3500 main 953 943 __________P___ -1 -12.3075 61.3500 7 3 206
1896046S10062 1896 6 SI MM NOT_NAMED 1896-02-16 03:00:00 NR -12.4572 61.2750 main 933 918 __________P___ -1 -12.4572 61.2750 7 3 207
1896046S10062 1896 6 SI MM NOT_NAMED 1896-02-16 06:00:00 NR -12.6000 61.2000 main 918 904 __________O___ -1 -12.6000 61.2000 7 3 209
1896046S10062 1896 6 SI MM NOT_NAMED 1896-02-16 09:00:00 NR -12.7281 61.1250 main 904 893 __________P___ -1 -12.7281 61.1250 7 3 211
1896046S10062 1896 6 SI MM NOT_NAMED 1896-02-16 12:00:00 NR -12.8500 61.0499 main 889 868 __________P___ -1 -12.8500 61.0499 7 3 211
1896046S10062 1896 6 SI MM NOT_NAMED 1896-02-16 15:00:00 NR -12.9719 60.9750 main 868 854 __________P___ -1 -12.9719 60.9750 7 3 211
1896046S10062 1896 6 SI MM NOT_NAMED 1896-02-16 18:00:00 NR -13.1000 60.9000 main 854 839 __________O___ -1 -13.1000 60.9000 7 3 207
1896046S10062 1896 6 SI MM NOT_NAMED 1896-02-16 21:00:00 NR -13.2428 60.8331 main 839 819 __________P___ -1 -13.2428 60.8331 7 3 205
1896046S10062 1896 6 SI MM NOT_NAMED 1896-02-17 00:00:00 NR -13.3925 60.7649 main 819 804 __________P___ -1 -13.3925 60.7649 7 3 205
1896046S10062 1896 6 SI MM NOT_NAMED 1896-02-17 03:00:00 NR -13.5459 60.6893 main 804 779 __________P___ -1 -13.5459 60.6893 7 3 207
1896046S10062 1896 6 SI MM NOT_NAMED 1896-02-17 06:00:00 NR -13.7000 60.6000 main 779 765 __________O___ -1 -13.7000 60.6000 7 4 213
1896046S10062 1896 6 SI MM NOT_NAMED 1896-02-17 09:00:00 NR -13.8541 60.4813 main 754 740 __________P___ -1 -13.8541 60.4813 7 4 218
1896046S10062 1896 6 SI MM NOT_NAMED 1896-02-17 12:00:00 NR -14.0076 60.3501 main 740 722 __________P___ -1 -14.0076 60.3501 7 4 220
1896046S10062 1896 6 SI MM NOT_NAMED 1896-02-17 15:00:00 NR -14.1572 60.2188 main 711 697 __________P___ -1 -14.1572 60.2188 7 4 220
1896046S10062 1896 6 SI MM NOT_NAMED 1896-02-17 18:00:00 NR -14.3000 60.1000 main 697 682 __________O___ -1 -14.3000 60.1000 7 3 216
1896046S10062 1896 6 SI MM NOT_NAMED 1896-02-17 21:00:00 NR -14.4321 60.0146 main 682 658 __________P___ -1 -14.4321 60.0146 7 3 210
1896046S10062 1896 6 SI MM NOT_NAMED 1896-02-18 00:00:00 NR -14.5574 59.9424 main 658 647 __________P___ -1 -14.5574 59.9424 7 3 209
1896046S10062 1896 6 SI MM NOT_NAMED 1896-02-18 03:00:00 NR -14.6790 59.8740 main 647 633 __________P___ -1 -14.6790 59.8740 7 3 210
1896046S10062 1896 6 SI MM NOT_NAMED 1896-02-18 06:00:00 NR -14.8000 59.8000 main 633 619 __________O___ -1 -14.8000 59.8000 7 3 214
1896046S10062 1896 6 SI MM NOT_NAMED 1896-02-18 09:00:00 NR -14.9250 59.7031 main 619 605 __________P___ -1 -14.9250 59.7031 7 3 218
1896046S10062 1896 6 SI MM NOT_NAMED 1896-02-18 12:00:00 NR -15.0500 59.6000 main 594 580 __________P___ -1 -15.0500 59.6000 7 3 218
1896046S10062 1896 6 SI MM NOT_NAMED 1896-02-18 15:00:00 NR -15.1750 59.4969 main 580 566 __________P___ -1 -15.1750 59.4969 7 3 218
1896046S10062 1896 6 SI MM NOT_NAMED 1896-02-18 18:00:00 NR -15.3000 59.4000 main 566 552 __________O___ -1 -15.3000 59.4000 7 3 214
1896046S10062 1896 6 SI MM NOT_NAMED 1896-02-18 21:00:00 NR -15.4209 59.3299 main 552 541 __________P___ -1 -15.4209 59.3299 7 3 209
1896046S10062 1896 6 SI MM NOT_NAMED 1896-02-19 00:00:00 NR -15.5424 59.2648 main 541 517 __________P___ -1 -15.5424 59.2648 7 3 208
1896046S10062 1896 6 SI MM NOT_NAMED 1896-02-19 03:00:00 NR -15.6677 59.1924 main 517 503 __________P___ -1 -15.6677 59.1924 7 3 211
1896046S10062 1896 6 SI MM NOT_NAMED 1896-02-19 06:00:00 NR -15.8000 59.1000 main 503 489 __________O___ -1 -15.8000 59.1000 7 4 219
1896046S10062 1896 6 SI MM NOT_NAMED 1896-02-19 09:00:00 NR -15.9429 58.9635 main 489 462 __________P___ -1 -15.9429 58.9635 7 4 224
1896046S10062 1896 6 SI MM NOT_NAMED 1896-02-19 12:00:00 NR -16.0926 58.8076 main 462 448 __________P___ -1 -16.0926 58.8076 7 4 225
1896046S10062 1896 6 SI MM NOT_NAMED 1896-02-19 15:00:00 NR -16.2460 58.6479 main 446 422 __________P___ -1 -16.2460 58.6479 7 4 224
1896046S10062 1896 6 SI MM NOT_NAMED 1896-02-19 18:00:00 NR -16.4000 58.5000 main 422 409 __________O___ -1 -16.4000 58.5000 7 4 219
1896046S10062 1896 6 SI MM NOT_NAMED 1896-02-19 21:00:00 NR -16.5459 58.3895 main 409 385 __________P___ -1 -16.5459 58.3895 7 4 214
1896046S10062 1896 6 SI MM NOT_NAMED 1896-02-20 00:00:00 NR -16.6924 58.2923 main 385 372 __________P___ -1 -16.6924 58.2923 7 4 211
1896046S10062 1896 6 SI MM NOT_NAMED 1896-02-20 03:00:00 NR -16.8427 58.1989 main 372 349 __________P___ -1 -16.8427 58.1989 7 4 211
1896046S10062 1896 6 SI MM NOT_NAMED 1896-02-20 06:00:00 NR -17.0000 58.1000 main 349 325 __________O___ -1 -17.0000 58.1000 7 4 214
1896046S10062 1896 6 SI MM NOT_NAMED 1896-02-20 09:00:00 NR -17.1719 57.9701 main 325 313 __________P___ -1 -17.1719 57.9701 7 4 216
1896046S10062 1896 6 SI MM NOT_NAMED 1896-02-20 12:00:00 NR -17.3501 57.8351 main 302 290 __________P___ -1 -17.3501 57.8351 7 4 215
1896046S10062 1896 6 SI MM NOT_NAMED 1896-02-20 15:00:00 NR -17.5282 57.7076 main 290 268 __________P___ -1 -17.5282 57.7076 7 4 213
1896046S10062 1896 6 SI MM NOT_NAMED 1896-02-20 18:00:00 NR -17.7000 57.6000 main 268 257 __________O___ -1 -17.7000 57.6000 7 4 209
1896046S10062 1896 6 SI MM NOT_NAMED 1896-02-20 21:00:00 NR -17.8409 57.5202 main 257 234 __________P___ -1 -17.8409 57.5202 7 3 205
1896046S10062 1896 6 SI MM NOT_NAMED 1896-02-21 00:00:00 NR -17.9775 57.4624 main 234 223 __________P___ -1 -17.9775 57.4624 7 3 198
1896046S10062 1896 6 SI MM NOT_NAMED 1896-02-21 03:00:00 NR -18.1253 57.4234 main 223 201 __________P___ -1 -18.1253 57.4234 7 3 189
1896046S10062 1896 6 SI MM NOT_NAMED 1896-02-21 06:00:00 NR -18.3000 57.4000 main 201 179 __________O___ -1 -18.3000 57.4000 7 4 187
1896046S10062 1896 6 SI MM NOT_NAMED 1896-02-21 09:00:00 NR -18.5375 57.3735 main 179 145 __________P___ -1 -18.5375 57.3735 7 5 185
1896046S10062 1896 6 SI MM NOT_NAMED 1896-02-21 12:00:00 NR -18.8000 57.3626 main 145 123 __________P___ -1 -18.8000 57.3626 7 5 0
1896046S10062 1896 6 SI MM NOT_NAMED 1896-02-21 15:00:00 NR -19.0625 57.3704 main 112 90 __________P___ -1 -19.0625 57.3704 7 5 175
1896046S10062 1896 6 SI MM NOT_NAMED 1896-02-21 18:00:00 NR -19.3000 57.4000 main 90 67 __________O___ -1 -19.3000 57.4000 7 4 171
1896046S10062 1896 6 SI MM NOT_NAMED 1896-02-21 21:00:00 NR -19.4665 57.4454 main 67 55 __________P___ -1 -19.4665 57.4454 7 3 162
1896046S10062 1896 6 SI MM NOT_NAMED 1896-02-22 00:00:00 NR -19.6075 57.5126 main 55 44 __________P___ -1 -19.6075 57.5126 7 3 153
1896046S10062 1896 6 SI MM NOT_NAMED 1896-02-22 03:00:00 NR -19.7447 57.5986 main 44 22 __________P___ -1 -19.7447 57.5986 7 3 149
1896046S10062 1896 6 SI MM NOT_NAMED 1896-02-22 06:00:00 NR -19.9000 57.7000 main 22 10 __________O___ -1 -19.9000 57.7000 7 4 151
1896046S10062 1896 6 SI MM NOT_NAMED 1896-02-22 09:00:00 NR -20.1035 57.8106 main 10 10 __________P___ -1 -20.1035 57.8106 7 5 153
1896046S10062 1896 6 SI MM NOT_NAMED 1896-02-22 12:00:00 NR -20.3275 57.9349 main 10 10 __________P___ -1 -20.3275 57.9349 7 5 152
1896046S10062 1896 6 SI MM NOT_NAMED 1896-02-22 15:00:00 NR -20.5628 58.0669 main 43 43 __________P___ -1 -20.5628 58.0669 7 5 152
1896046S10062 1896 6 SI MM NOT_NAMED 1896-02-22 18:00:00 NR -20.8000 58.2000 main 61 61 __________O___ -1 -20.8000 58.2000 7 5 153
1896046S10062 1896 6 SI MM NOT_NAMED 1896-02-22 21:00:00 NR -21.0316 58.3293 main 83 83 __________P___ -1 -21.0316 58.3293 7 5 152
1896046S10062 1896 6 SI MM NOT_NAMED 1896-02-23 00:00:00 NR -21.2575 58.4548 main 122 122 __________P___ -1 -21.2575 58.4548 7 5 153
1896046S10062 1896 6 SI MM NOT_NAMED 1896-02-23 03:00:00 NR -21.4797 58.5779 main 145 145 __________P___ -1 -21.4797 58.5779 7 5 153
1896046S10062 1896 6 SI MM NOT_NAMED 1896-02-23 06:00:00 NR -21.7000 58.7000 main 169 __________O___ -1 -21.7000 58.7000 7 5 153

About IBTrACS Database

This database is a web-friendly format of International Best Track Archive for Climate Stewardship (IBTrACS), a global best track data archive curated by NOAA dating back to 1842.

Updated: 2021-11-26